UUBW

Zhukovsky/Ramenskoye Airport

Airport
ICAO code
UUBW
IATA Code
ZIA
Summary
ICAO Region
EUR
ICAO Territory
Location

Ramenskoye,

Serving
Zhukovsky
Elevation
377 ft
Coordinates
55° 35' 20" N , 38° 9' 14" E
Metar
UUBW 241200Z 14006MPS 9999 OVC014 01/M02 Q1028 R30/120050 NOSIG RMK QFE761

Airport map

Aerial View

SKYbrary Partners:

Safety knowledge contributed by: